Flight Track Log - Related Links

Times and Time Zones

All times are in EDT time to prevent confusion due to time zone crossing. See the AVN20 flight status page for this flight to view local times or setup timezone preferences in your user account.

Time Position Orientation Groundspeed Altitude Reporting Facility
EDT Latitude Longitude Course Direction KTS MPH feet Rate Location/Type
Fri 01:23:00 AM -18.1601 167.6809 233° Southwest  Level FlightAware Approximate
Fri 01:24:00 AM -18.2061 167.6169 233° Southwest  Level FlightAware Approximate
Fri 01:25:00 AM -18.2521 167.5528 233° Southwest  Level FlightAware Approximate
Fri 01:26:00 AM -18.2980 167.4886 233° Southwest  Level FlightAware Approximate
Fri 01:27:00 AM -18.3439 167.4245 233° Southwest  Level FlightAware Approximate
Fri 01:28:00 AM -18.3897 167.3602 233° Southwest  Level FlightAware Approximate
Fri 01:29:00 AM -18.4356 167.2960 233° Southwest  Level FlightAware Approximate
Fri 01:30:00 AM -18.4814 167.2317 233° Southwest  Level FlightAware Approximate
Fri 01:31:00 AM -18.5273 167.1674 233° Southwest  Level FlightAware Approximate
Fri 01:32:00 AM -18.5731 167.1031 233° Southwest  Level FlightAware Approximate
Fri 01:33:00 AM -18.6188 167.0387 233° Southwest  Level FlightAware Approximate
Fri 01:34:00 AM -18.6646 166.9743 233° Southwest  Level FlightAware Approximate
Fri 01:35:00 AM -18.7103 166.9098 233° Southwest  Level FlightAware Approximate
Fri 01:36:00 AM -18.7560 166.8454 233° Southwest  Level FlightAware Approximate
Fri 01:37:00 AM -18.8017 166.7808 233° Southwest  Level FlightAware Approximate
Fri 01:38:00 AM -18.8474 166.7163 233° Southwest  Level FlightAware Approximate
Fri 01:39:00 AM -18.8930 166.6517 233° Southwest  Level FlightAware Approximate
Fri 01:40:00 AM -18.9386 166.5871 233° Southwest  Level FlightAware Approximate
Fri 01:41:00 AM -18.9842 166.5224 233° Southwest  Level FlightAware Approximate
Fri 01:42:00 AM -19.0298 166.4577 233° Southwest  Level FlightAware Approximate
Fri 01:43:00 AM -19.0753 166.3930 233° Southwest  Level FlightAware Approximate
Fri 01:44:00 AM -19.1209 166.3282 233° Southwest  Level FlightAware Approximate
Fri 01:45:00 AM -19.1664 166.2634 233° Southwest  Level FlightAware Approximate
Fri 01:46:00 AM -19.2118 166.1986 233° Southwest  Level FlightAware Approximate
Fri 01:47:00 AM -19.2573 166.1337 233° Southwest  Level FlightAware Approximate
Fri 01:48:00 AM -19.3027 166.0688 233° Southwest  Level FlightAware Approximate
Fri 01:49:00 AM -19.3482 166.0039 233° Southwest  Level FlightAware Approximate
Fri 01:50:00 AM -19.3935 165.9389 233° Southwest  Level FlightAware Approximate
Fri 01:51:00 AM -19.4389 165.8739 233° Southwest  Level FlightAware Approximate
Fri 01:52:00 AM -19.4842 165.8088 234° Southwest  Level FlightAware Approximate
Fri 01:53:00 AM -19.5296 165.7437 234° Southwest  Level FlightAware Approximate
Fri 01:54:00 AM -19.5749 165.6786 234° Southwest  Level FlightAware Approximate
Fri 01:55:00 AM -19.6201 165.6134 234° Southwest  Level FlightAware Approximate
Fri 01:56:00 AM -19.6654 165.5482 234° Southwest  Level FlightAware Approximate
Fri 01:57:00 AM -19.7107 165.4831 236° Southwest  Level Estimated
Fri 01:58:00 AM -19.7560 165.4179 234° Southwest  Level FlightAware Approximate
Fri 01:59:00 AM -19.8012 165.3526 234° Southwest  Level FlightAware Approximate
Fri 02:00:00 AM -19.8465 165.2873 234° Southwest  Level FlightAware Approximate
Fri 02:01:00 AM -19.8916 165.2220 234° Southwest  Level FlightAware Approximate
Fri 02:02:00 AM -19.9368 165.1566 234° Southwest  Level FlightAware Approximate
Fri 02:03:00 AM -19.9820 165.0912 234° Southwest  Level FlightAware Approximate
Fri 02:04:00 AM -20.0271 165.0258 234° Southwest  Level FlightAware Approximate
Fri 02:05:00 AM -20.0722 164.9603 234° Southwest  Level FlightAware Approximate
Fri 02:05:05 AM -21.4635 162.8968 234° Southwest 38,000  Level Aus ATC (Calculated)
Fri 02:07:00 AM -21.5363 162.7870 234° Southwest  Level FlightAware Approximate
Fri 02:08:00 AM -21.5743 162.7297 235° Southwest  Level FlightAware Approximate
Fri 02:08:05 AM -21.6701 162.5840 235° Southwest 38,000  Level Aus ATC (Calculated)
Fri 02:10:00 AM -21.7428 162.4739 235° Southwest  Level FlightAware Approximate
Fri 02:10:01 AM -21.7946 162.3946 235° Southwest 38,000  Level Aus ATC (Calculated)
Fri 02:12:00 AM -21.8697 162.2805 235° Southwest  Level FlightAware Approximate
Fri 02:12:38 AM -21.9694 162.1277 235° Southwest 38,000  Level Aus ATC (Calculated)
Fri 02:14:00 AM -22.0210 162.0489 235° Southwest  Level FlightAware Approximate
Fri 02:15:00 AM -22.0588 161.9912 235° Southwest  Level FlightAware Approximate
Fri 02:16:00 AM -22.0965 161.9335 235° Southwest  Level FlightAware Approximate
Fri 02:17:00 AM -22.1342 161.8758 235° Southwest  Level FlightAware Approximate
Fri 02:18:00 AM -22.1719 161.8180 235° Southwest  Level FlightAware Approximate
Fri 02:19:00 AM -22.2095 161.7602 235° Southwest  Level FlightAware Approximate
Fri 02:20:00 AM -22.2472 161.7023 235° Southwest  Level FlightAware Approximate
Fri 02:21:00 AM -22.2848 161.6445 235° Southwest  Level FlightAware Approximate
Fri 02:22:00 AM -22.3224 161.5866 235° Southwest  Level FlightAware Approximate
Fri 02:23:00 AM -22.3599 161.5286 235° Southwest  Level FlightAware Approximate
Fri 02:24:00 AM -22.3975 161.4707 235° Southwest  Level FlightAware Approximate
Fri 02:25:00 AM -22.4350 161.4127 235° Southwest  Level FlightAware Approximate
Fri 02:26:00 AM -22.4725 161.3546 235° Southwest  Level FlightAware Approximate
Fri 02:27:00 AM -22.5100 161.2966 235° Southwest  Level FlightAware Approximate
Fri 02:28:00 AM -22.5475 161.2385 235° Southwest  Level FlightAware Approximate
Fri 02:29:00 AM -22.5849 161.1804 235° Southwest  Level FlightAware Approximate
Fri 02:30:00 AM -22.6224 161.1222 235° Southwest  Level FlightAware Approximate
Fri 02:31:00 AM -22.6598 161.0641 235° Southwest  Level FlightAware Approximate
Fri 02:32:00 AM -22.6972 161.0058 235° Southwest  Level FlightAware Approximate
Fri 02:33:00 AM -22.7345 160.9476 235° Southwest  Level FlightAware Approximate
Fri 02:34:00 AM -22.7719 160.8893 235° Southwest  Level FlightAware Approximate
Fri 02:35:00 AM -22.8092 160.8310 235° Southwest  Level FlightAware Approximate
Fri 02:36:00 AM -22.8465 160.7726 235° Southwest  Level FlightAware Approximate
Fri 02:37:00 AM -22.8838 160.7143 235° Southwest  Level FlightAware Approximate
Fri 02:38:00 AM -22.9210 160.6559 235° Southwest  Level FlightAware Approximate
Fri 02:39:00 AM -22.9583 160.5974 235° Southwest  Level FlightAware Approximate
Fri 02:40:00 AM -22.9955 160.5390 235° Southwest  Level FlightAware Approximate
Fri 02:41:00 AM -23.0327 160.4805 235° Southwest  Level FlightAware Approximate
Fri 02:42:00 AM -23.0699 160.4219 235° Southwest  Level FlightAware Approximate
Fri 02:43:00 AM -23.1070 160.3634 235° Southwest  Level FlightAware Approximate
Fri 02:44:00 AM -23.1441 160.3047 235° Southwest  Level FlightAware Approximate
Fri 02:45:00 AM -23.1813 160.2461 235° Southwest  Level FlightAware Approximate
Fri 02:46:00 AM -23.2183 160.1875 235° Southwest  Level FlightAware Approximate
Fri 02:47:00 AM -23.2554 160.1288 235° Southwest  Level FlightAware Approximate
Fri 02:47:00 AM -24.4253 158.2342 236° Southwest 36,000  Level Aus ATC (Calculated)
Fri 02:47:55 AM -24.4906 158.1269 236° Southwest 36,000 83 Level Aus ATC (Calculated)
Fri 02:48:00 AM -24.4647 158.1695 236° Southwest  Level FlightAware Approximate
Fri 02:49:00 AM -24.5333 158.0567 236° Southwest  Level FlightAware Approximate
Fri 02:50:00 AM -24.5726 157.9918 236° Southwest  Level FlightAware Approximate
Fri 02:51:00 AM -24.6119 157.9270 236° Southwest  Level FlightAware Approximate
Fri 02:52:00 AM -24.6512 157.8620 236° Southwest  Level FlightAware Approximate
Fri 02:53:00 AM -24.6905 157.7970 236° Southwest  Level FlightAware Approximate
Fri 02:54:00 AM -24.7298 157.7321 224° Southwest  Level Estimated
Fri 02:55:00 AM -24.7763 157.6732 229° Southwest  Level FlightAware Approximate
Fri 02:56:00 AM -24.8228 157.6142 229° Southwest  Level FlightAware Approximate
Fri 02:57:00 AM -24.8693 157.5552 229° Southwest  Level FlightAware Approximate
Fri 02:58:00 AM -24.9158 157.4962 229° Southwest  Level FlightAware Approximate
Fri 02:59:00 AM -24.9622 157.4371 229° Southwest  Level FlightAware Approximate
Fri 02:59:09 AM -25.3005 156.7762 57° Northeast 36,000  Level Aus ATC (Calculated)
Fri 03:01:00 AM -25.3898 156.6700 227° Southwest  Level FlightAware Approximate
Fri 03:02:00 AM -25.4381 156.6125 227° Southwest  Level FlightAware Approximate
Fri 03:03:00 AM -25.4863 156.5549 227° Southwest  Level FlightAware Approximate
Fri 03:04:00 AM -25.5346 156.4973 227° Southwest  Level FlightAware Approximate
Fri 03:05:00 AM -25.5828 156.4397 227° Southwest  Level FlightAware Approximate
Fri 03:06:00 AM -25.6310 156.3820 227° Southwest  Level FlightAware Approximate
Fri 03:07:00 AM -25.6791 156.3243 227° Southwest  Level FlightAware Approximate
Fri 03:08:00 AM -25.7273 156.2665 227° Southwest  Level FlightAware Approximate
Fri 03:09:00 AM -25.7754 156.2087 227° Southwest  Level FlightAware Approximate
Fri 03:10:00 AM -25.8235 156.1509 227° Southwest  Level FlightAware Approximate
Fri 03:10:28 AM -26.1701 155.5709 53° Northeast 16,800  Level Aus ATC (Calculated)
Fri 03:11:07 AM -25.0130 157.2579 227° Southwest 389 448 38,000 17,189 Climbing Aus ATC (RADAR)
Fri 03:11:42 AM -25.0490 157.2069 232° Southwest 358 412 38,000  Level Aus ATC (RADAR)
Fri 03:12:26 AM -25.0873 157.1348 240° Southwest 358 412 38,000  Level Aus ATC (RADAR)
Fri 03:13:01 AM -25.1187 157.0788 238° Southwest 359 413 38,000  Level Aus ATC (RADAR)
Fri 03:13:46 AM -25.1598 157.0075 237° Southwest 359 413 38,000  Level Aus ATC (RADAR)
Fri 03:14:12 AM -25.1842 156.9693 235° Southwest 359 413 38,000  Level Aus ATC (RADAR)
Fri 03:14:46 AM -25.2176 156.9157 235° Southwest 359 413 38,000  Level Aus ATC (RADAR)
Fri 03:15:41 AM -25.2677 156.8297 237° Southwest 357 411 38,000  Level Aus ATC (RADAR)
Fri 03:16:06 AM -25.2922 156.7920 234° Southwest 357 411 38,000  Level Aus ATC (RADAR)
Fri 03:16:36 AM -25.3200 156.7461 236° Southwest 354 407 38,000  Level Aus ATC (RADAR)
Fri 03:17:26 AM -25.3661 156.6698 236° Southwest 353 406 38,000  Level Aus ATC (RADAR)
Fri 03:18:01 AM -25.3972 156.6159 237° Southwest 351 404 38,000  Level Aus ATC (RADAR)
Fri 03:18:46 AM -25.4372 156.5463 238° Southwest 352 405 38,000  Level Aus ATC (RADAR)
Fri 03:19:11 AM -25.4600 156.5088 236° Southwest 350 403 38,000  Level Aus ATC (RADAR)
Fri 03:19:46 AM -25.4917 156.4561 236° Southwest 348 400 38,000 63 Level Aus ATC (RADAR)
Fri 03:20:46 AM -25.5447 156.3647 237° Southwest 348 400 38,100 71 Climbing Aus ATC (RADAR)
Fri 03:21:11 AM -25.5657 156.3256 239° Southwest 348 400 38,100  Level Aus ATC (RADAR)
Fri 03:21:46 AM -25.5971 156.2726 237° Southwest 349 402 38,100  Level Aus ATC (RADAR)
Fri 03:22:26 AM -25.6324 156.2114 237° Southwest 349 402 38,100  Level Aus ATC (RADAR)
Fri 03:23:00 AM -25.6640 156.1587 236° Southwest 348 400 38,100  Level Aus ATC (RADAR)
Fri 03:23:50 AM -25.7081 156.0833 237° Southwest 348 400 38,100  Level Aus ATC (RADAR)
Fri 03:24:05 AM -25.7217 156.0600 237° Southwest 351 404 38,100  Level Aus ATC (RADAR)
Fri 03:24:40 AM -25.7635 156.0131 225° Southwest 362 417 38,100  Level Aus ATC (RADAR)
Fri 03:25:45 AM -25.8452 155.9306 222° Southwest 364 419 38,100  Level Aus ATC (RADAR)
Fri 03:26:10 AM -25.8749 155.8972 225° Southwest 362 417 38,100  Level Aus ATC (RADAR)
Fri 03:26:45 AM -25.9171 155.8510 225° Southwest 362 417 38,100  Level Aus ATC (RADAR)
Fri 03:27:35 AM -25.9772 155.7855 224° Southwest 360 414 38,100  Level Aus ATC (RADAR)
Fri 03:28:10 AM -26.0191 155.7395 225° Southwest 360 414 38,100  Level Aus ATC (RADAR)
Fri 03:28:55 AM -26.0730 155.6798 225° Southwest 363 418 38,100  Level Aus ATC (RADAR)
Fri 03:29:20 AM -26.1030 155.6467 225° Southwest 362 417 38,100  Level Aus ATC (RADAR)
Fri 03:29:55 AM -26.1451 155.6007 224° Southwest 362 417 38,100  Level Aus ATC (RADAR)
Fri 03:30:45 AM -26.2026 155.5374 225° Southwest 346 398 38,100  Level Aus ATC (RADAR)
Fri 03:31:10 AM -26.2311 155.5061 225° Southwest 343 395 38,100  Level Aus ATC (RADAR)
Fri 03:31:45 AM -26.2702 155.4629 225° Southwest 337 388 38,100  Level Aus ATC (RADAR)
Fri 03:32:24 AM -26.3144 155.4169 223° Southwest 325 374 38,100  Level Aus ATC (RADAR)
Fri 03:32:59 AM -26.3487 155.3737 229° Southwest 318 366 38,100  Level Aus ATC (RADAR)
Fri 03:33:49 AM -26.4009 155.3167 224° Southwest 314 361 38,100  Level Aus ATC (RADAR)
Fri 03:34:14 AM -26.4265 155.2882 225° Southwest 311 358 38,100  Level Aus ATC (RADAR)
Fri 03:34:49 AM -26.4626 155.2487 224° Southwest 310 357 38,100  Level Aus ATC (RADAR)
Fri 03:35:49 AM -26.5232 155.1796 226° Southwest 309 356 38,100  Level Aus ATC (RADAR)
Fri 03:36:14 AM -26.5488 155.1514 225° Southwest 308 354 38,100  Level Aus ATC (RADAR)
Fri 03:36:54 AM -26.5897 155.1056 225° Southwest 310 357 38,100  Level Aus ATC (RADAR)
Fri 03:37:34 AM -26.6312 155.0605 224° Southwest 310 357 38,100  Level Aus ATC (RADAR)
Fri 03:38:09 AM -26.6665 155.0201 226° Southwest 310 357 38,100  Level Aus ATC (RADAR)
Fri 03:38:59 AM -26.7177 154.9634 225° Southwest 309 356 38,100  Level Aus ATC (RADAR)
Fri 03:39:29 AM -26.7486 154.9296 224° Southwest 310 357 38,100 -831 Level Aus ATC (RADAR)
Fri 03:40:04 AM -26.7829 154.8913 225° Southwest 297 342 37,200 -1,673 Descending Aus ATC (RADAR)
Fri 03:41:13 AM -26.8503 154.8160 225° Southwest 292 336 35,200 -1,723 Descending Aus ATC (RADAR)
Fri 03:41:38 AM -26.8735 154.7896 225° Southwest 287 330 34,500 -1,800 Descending Aus ATC (RADAR)
Fri 03:42:13 AM -26.9051 154.7530 226° Southwest 281 323 33,400 -1,950 Descending Aus ATC (RADAR)
Fri 03:42:58 AM -26.9470 154.7077 224° Southwest 281 323 31,900 -1,950 Descending Aus ATC (RADAR)
Fri 03:43:33 AM -26.9791 154.6716 225° Southwest 281 323 30,800 -1,667 Descending Aus ATC (RADAR)
Fri 03:44:28 AM -27.0289 154.6154 225° Southwest 277 319 29,400 -1,360 Descending Aus ATC (RADAR)
Fri 03:44:48 AM -27.0471 154.5958 224° Southwest 273 314 29,100 -923 Descending Aus ATC (RADAR)
Fri 03:45:33 AM -27.0877 154.5499 225° Southwest 276 318 28,400 -1,000 Descending Aus ATC (RADAR)
Fri 03:46:18 AM -27.1280 154.5042 225° Southwest 274 315 27,600 -1,050 Descending Aus ATC (RADAR)
Fri 03:46:53 AM -27.1591 154.4684 226° Southwest 274 315 27,000 -1,059 Descending Aus ATC (RADAR)
Fri 03:47:43 AM -27.2039 154.4177 225° Southwest 273 314 26,100 -1,200 Descending Aus ATC (RADAR)
Fri 03:48:03 AM -27.2214 154.3978 225° Southwest 270 311 25,600 -1,527 Descending Aus ATC (RADAR)
Fri 03:48:38 AM -27.2522 154.3634 225° Southwest 268 308 24,700 -1,571 Descending Aus ATC (RADAR)
Fri 03:49:27 AM -27.2962 154.3141 225° Southwest 268 308 23,400 -1,500 Descending Aus ATC (RADAR)
Fri 03:50:02 AM -27.3262 154.2797 225° Southwest 264 304 22,600 -1,371 Descending Aus ATC (RADAR)
Fri 03:51:12 AM -27.3846 154.2120 226° Southwest 257 296 21,000 -1,341 Descending Aus ATC (RADAR)
Fri 03:51:27 AM -27.3974 154.1981 224° Southwest 257 296 20,700 -1,320 Descending Aus ATC (RADAR)
Fri 03:52:02 AM -27.4276 154.1655 224° Southwest 259 298 19,900 -1,400 Descending Aus ATC (RADAR)
Fri 03:52:57 AM -27.4739 154.1126 225° Southwest 260 299 18,600 -1,400 Descending Aus ATC (RADAR)
Fri 03:53:32 AM -27.5029 154.0790 226° Southwest 257 296 17,800 -1,275 Descending Aus ATC (RADAR)
Fri 03:54:17 AM -27.5144 154.0241 257° West 256 295 16,900 -1,286 Descending Aus ATC (RADAR)
Fri 03:54:42 AM -27.5074 153.9877 282° West 276 318 16,300 -1,400 Descending Aus ATC (RADAR)
Fri 03:55:17 AM -27.4991 153.9357 280° West 287 330 15,500 -1,482 Descending Aus ATC (RADAR)
Fri 03:56:07 AM -27.4869 153.8619 281° West 286 329 14,200 -1,425 Descending Aus ATC (RADAR)
Fri 03:56:37 AM -27.4797 153.8188 281° West 280 322 13,600 -1,292 Descending Aus ATC (RADAR)
Fri 03:57:12 AM -27.4715 153.7693 281° West 272 313 12,800 -1,440 Descending Aus ATC (RADAR)
Fri 03:57:52 AM -27.4625 153.7152 281° West 262 302 11,800 -1,440 Descending Aus ATC (RADAR)
Fri 03:58:27 AM -27.4549 153.6680 280° West 260 299 11,000 -1,443 Descending Aus ATC (RADAR)
Fri 03:59:11 AM -27.4452 153.6084 280° West 256 295 9,900 -1,478 Descending Aus ATC (RADAR)
Fri 03:59:36 AM -27.4397 153.5764 281° West 249 287 9,300 -1,475 Descending Aus ATC (RADAR)
Fri 04:00:12 AM -27.4319 153.5320 281° West 245 282 8,400 -1,080 Descending Aus ATC (RADAR)
Fri 04:01:16 AM -27.4522 153.4520 254° West 254 292 7,500 -876 Descending Aus ATC (RADAR)
Fri 04:01:41 AM -27.4657 153.4216 243° Southwest 259 298 7,100 -800 Descending Aus ATC (RADAR)
Fri 04:02:16 AM -27.4846 153.3777 244° Southwest 267 307 6,700 -750 Descending Aus ATC (RADAR)
Fri 04:03:01 AM -27.5099 153.3214 243° Southwest 268 308 6,100 -750 Descending Aus ATC (RADAR)
Fri 04:03:36 AM -27.5295 153.2778 243° Southwest 266 306 5,700 -750 Descending Aus ATC (RADAR)
Fri 04:04:21 AM -27.5540 153.2212 244° Southwest 265 305 5,100 -771 Descending Aus ATC (RADAR)
Fri 04:04:46 AM -27.5666 153.1920 244° Southwest 253 291 4,800 -800 Descending Aus ATC (RADAR)
Fri 04:05:21 AM -27.5847 153.1510 244° Southwest 250 288 4,300 -695 Descending Aus ATC (RADAR)
Fri 04:06:21 AM -27.5909 153.0810 264° West 234 269 3,700 -635 Descending Aus ATC (RADAR)
Fri 04:06:46 AM -27.5837 153.0533 286° West 222 255 3,400 -700 Descending Aus ATC (RADAR)
Fri 04:07:21 AM -27.5622 153.0280 314° West 209 241 3,000 -494 Descending Aus ATC (RADAR)
Fri 04:08:11 AM -27.5262 153.0469 25° Northeast 163 188 2,700 -571 Descending Aus ATC (RADAR)
Fri 04:08:45 AM -27.5023 153.0610 28° Northeast 165 190 2,200 -911 Descending Aus ATC (RADAR)
Fri 04:09:30 AM -27.4718 153.0787 27° Northeast 162 186 1,500 -880 Descending Aus ATC (RADAR)
Fri 04:10:00 AM -27.4529 153.0891 26° Northeast 152 175 1,100 -738 Descending Aus ATC (RADAR)
Fri 04:10:35 AM -27.4311 153.1017 27° Northeast 151 174 700 -686 Descending Aus ATC (RADAR)

Login

Don't have an account? Register now (free) for customized features, flight alerts, and more!